sensor_id;sensor_type;location;lat;lon;timestamp;temperature;humidity
52979;DHT22;63430;53.186;6.598;2023-11-19T00:01:24;10.80;99.90
52979;DHT22;63430;53.186;6.598;2023-11-19T00:03:27;10.50;99.90
52979;DHT22;63430;53.186;6.598;2023-11-19T00:05:30;10.80;99.90
52979;DHT22;63430;53.186;6.598;2023-11-19T00:07:33;10.90;99.90
52979;DHT22;63430;53.186;6.598;2023-11-19T00:09:37;10.90;99.90
52979;DHT22;63430;53.186;6.598;2023-11-19T00:11:39;10.90;99.90
52979;DHT22;63430;53.186;6.598;2023-11-19T00:13:43;11.50;99.90
52979;DHT22;63430;53.186;6.598;2023-11-19T00:15:48;11.10;99.90
52979;DHT22;63430;53.186;6.598;2023-11-19T00:17:51;11.10;99.90
52979;DHT22;63430;53.186;6.598;2023-11-19T00:19:54;11.10;99.90
52979;DHT22;63430;53.186;6.598;2023-11-19T00:21:56;11.20;99.90
52979;DHT22;63430;53.186;6.598;2023-11-19T00:23:59;11.20;99.90
52979;DHT22;63430;53.186;6.598;2023-11-19T00:26:02;11.30;99.90
52979;DHT22;63430;53.186;6.598;2023-11-19T00:28:06;11.40;99.90
52979;DHT22;63430;53.186;6.598;2023-11-19T00:30:09;11.40;99.90
52979;DHT22;63430;53.186;6.598;2023-11-19T00:32:15;11.40;99.90
52979;DHT22;63430;53.186;6.598;2023-11-19T00:34:18;11.50;99.90
52979;DHT22;63430;53.186;6.598;2023-11-19T00:36:24;11.80;99.90
52979;DHT22;63430;53.186;6.598;2023-11-19T00:38:26;11.80;99.90
52979;DHT22;63430;53.186;6.598;2023-11-19T00:40:29;11.60;99.90
52979;DHT22;63430;53.186;6.598;2023-11-19T00:42:32;12.00;99.90
52979;DHT22;63430;53.186;6.598;2023-11-19T00:44:34;11.70;99.90
52979;DHT22;63430;53.186;6.598;2023-11-19T00:46:37;11.60;99.90
52979;DHT22;63430;53.186;6.598;2023-11-19T00:48:42;11.70;99.90
52979;DHT22;63430;53.186;6.598;2023-11-19T00:50:45;11.70;99.90
52979;DHT22;63430;53.186;6.598;2023-11-19T00:52:51;11.90;99.90
52979;DHT22;63430;53.186;6.598;2023-11-19T00:54:54;12.00;99.90
52979;DHT22;63430;53.186;6.598;2023-11-19T00:56:59;11.80;99.90
52979;DHT22;63430;53.186;6.598;2023-11-19T00:59:01;11.90;99.90
52979;DHT22;63430;53.186;6.598;2023-11-19T01:01:04;11.90;99.90
52979;DHT22;63430;53.186;6.598;2023-11-19T01:03:07;11.80;99.90
52979;DHT22;63430;53.186;6.598;2023-11-19T01:05:13;12.10;99.90
52979;DHT22;63430;53.186;6.598;2023-11-19T01:07:18;11.90;99.90
52979;DHT22;63430;53.186;6.598;2023-11-19T01:09:21;11.90;99.90
52979;DHT22;63430;53.186;6.598;2023-11-19T01:11:26;11.90;99.90
52979;DHT22;63430;53.186;6.598;2023-11-19T01:13:29;12.10;99.90
52979;DHT22;63430;53.186;6.598;2023-11-19T01:15:32;11.90;99.90
52979;DHT22;63430;53.186;6.598;2023-11-19T01:17:35;12.00;99.90
52979;DHT22;63430;53.186;6.598;2023-11-19T01:19:38;12.00;99.90
52979;DHT22;63430;53.186;6.598;2023-11-19T01:21:44;12.00;99.90
52979;DHT22;63430;53.186;6.598;2023-11-19T01:23:46;12.00;99.90
52979;DHT22;63430;53.186;6.598;2023-11-19T01:25:49;12.00;99.90
52979;DHT22;63430;53.186;6.598;2023-11-19T01:27:52;12.00;99.90
52979;DHT22;63430;53.186;6.598;2023-11-19T01:29:56;12.00;99.90
52979;DHT22;63430;53.186;6.598;2023-11-19T01:31:58;12.00;99.90
52979;DHT22;63430;53.186;6.598;2023-11-19T01:34:01;12.10;99.90
52979;DHT22;63430;53.186;6.598;2023-11-19T01:36:05;12.10;99.90
52979;DHT22;63430;53.186;6.598;2023-11-19T01:38:10;12.10;99.90
52979;DHT22;63430;53.186;6.598;2023-11-19T01:40:20;12.20;99.90
52979;DHT22;63430;53.186;6.598;2023-11-19T01:42:23;12.20;99.90
52979;DHT22;63430;53.186;6.598;2023-11-19T01:44:27;12.10;99.90
52979;DHT22;63430;53.186;6.598;2023-11-19T01:46:30;12.20;99.90
52979;DHT22;63430;53.186;6.598;2023-11-19T01:48:37;12.00;99.90
52979;DHT22;63430;53.186;6.598;2023-11-19T01:50:43;12.10;99.90
52979;DHT22;63430;53.186;6.598;2023-11-19T01:52:45;12.10;99.90
52979;DHT22;63430;53.186;6.598;2023-11-19T01:54:51;12.10;99.90
52979;DHT22;63430;53.186;6.598;2023-11-19T01:56:56;12.20;99.90
52979;DHT22;63430;53.186;6.598;2023-11-19T01:58:59;12.10;99.90
52979;DHT22;63430;53.186;6.598;2023-11-19T02:01:03;12.10;99.90
52979;DHT22;63430;53.186;6.598;2023-11-19T02:03:06;12.10;99.90
52979;DHT22;63430;53.186;6.598;2023-11-19T02:05:11;12.20;99.90
52979;DHT22;63430;53.186;6.598;2023-11-19T02:07:14;12.20;99.90
52979;DHT22;63430;53.186;6.598;2023-11-19T02:09:17;12.40;99.90
52979;DHT22;63430;53.186;6.598;2023-11-19T02:11:24;12.10;99.90
52979;DHT22;63430;53.186;6.598;2023-11-19T02:13:31;12.10;99.90
52979;DHT22;63430;53.186;6.598;2023-11-19T02:15:34;12.10;99.90
52979;DHT22;63430;53.186;6.598;2023-11-19T02:17:37;12.20;99.90
52979;DHT22;63430;53.186;6.598;2023-11-19T02:19:40;12.10;99.90
52979;DHT22;63430;53.186;6.598;2023-11-19T02:21:42;12.10;99.90
52979;DHT22;63430;53.186;6.598;2023-11-19T02:23:45;12.00;99.90
52979;DHT22;63430;53.186;6.598;2023-11-19T02:26:00;12.00;99.90
52979;DHT22;63430;53.186;6.598;2023-11-19T02:28:07;12.00;99.90
52979;DHT22;63430;53.186;6.598;2023-11-19T02:30:11;12.00;99.90
52979;DHT22;63430;53.186;6.598;2023-11-19T02:32:17;12.00;99.90
52979;DHT22;63430;53.186;6.598;2023-11-19T02:34:19;12.10;99.90
52979;DHT22;63430;53.186;6.598;2023-11-19T02:36:22;12.30;99.90
52979;DHT22;63430;53.186;6.598;2023-11-19T02:38:25;12.00;99.90
52979;DHT22;63430;53.186;6.598;2023-11-19T02:40:28;12.00;99.90
52979;DHT22;63430;53.186;6.598;2023-11-19T02:42:31;12.00;99.90
52979;DHT22;63430;53.186;6.598;2023-11-19T02:44:36;12.10;99.90
52979;DHT22;63430;53.186;6.598;2023-11-19T02:46:39;12.00;99.90
52979;DHT22;63430;53.186;6.598;2023-11-19T02:48:44;12.10;99.90
52979;DHT22;63430;53.186;6.598;2023-11-19T02:50:48;12.00;99.90
52979;DHT22;63430;53.186;6.598;2023-11-19T02:52:52;12.00;99.90
52979;DHT22;63430;53.186;6.598;2023-11-19T02:54:55;12.10;99.90
52979;DHT22;63430;53.186;6.598;2023-11-19T02:56:58;12.10;99.90
52979;DHT22;63430;53.186;6.598;2023-11-19T02:59:04;12.10;99.90
52979;DHT22;63430;53.186;6.598;2023-11-19T03:01:21;12.00;99.90
52979;DHT22;63430;53.186;6.598;2023-11-19T03:03:32;12.00;99.90
52979;DHT22;63430;53.186;6.598;2023-11-19T03:05:41;12.00;99.90
52979;DHT22;63430;53.186;6.598;2023-11-19T03:07:44;12.00;99.90
52979;DHT22;63430;53.186;6.598;2023-11-19T03:09:46;12.00;99.90
52979;DHT22;63430;53.186;6.598;2023-11-19T03:11:49;12.30;99.90
52979;DHT22;63430;53.186;6.598;2023-11-19T03:13:52;12.00;99.90
52979;DHT22;63430;53.186;6.598;2023-11-19T03:15:54;12.00;99.90
52979;DHT22;63430;53.186;6.598;2023-11-19T03:18:00;12.00;99.90
52979;DHT22;63430;53.186;6.598;2023-11-19T03:20:04;11.90;99.90
52979;DHT22;63430;53.186;6.598;2023-11-19T03:22:09;12.00;99.90
52979;DHT22;63430;53.186;6.598;2023-11-19T03:24:13;12.00;99.90
52979;DHT22;63430;53.186;6.598;2023-11-19T03:26:16;12.40;99.90
52979;DHT22;63430;53.186;6.598;2023-11-19T03:28:20;12.00;99.90
52979;DHT22;63430;53.186;6.598;2023-11-19T03:30:23;12.00;99.90
52979;DHT22;63430;53.186;6.598;2023-11-19T03:32:35;12.00;99.90
52979;DHT22;63430;53.186;6.598;2023-11-19T03:34:41;11.90;99.90
52979;DHT22;63430;53.186;6.598;2023-11-19T03:36:43;12.00;99.90
52979;DHT22;63430;53.186;6.598;2023-11-19T03:38:46;11.90;99.90
52979;DHT22;63430;53.186;6.598;2023-11-19T03:40:48;12.30;99.90
52979;DHT22;63430;53.186;6.598;2023-11-19T03:42:51;12.10;99.90
52979;DHT22;63430;53.186;6.598;2023-11-19T03:44:57;11.90;99.90
52979;DHT22;63430;53.186;6.598;2023-11-19T03:47:00;12.00;99.90
52979;DHT22;63430;53.186;6.598;2023-11-19T03:49:02;11.90;99.90
52979;DHT22;63430;53.186;6.598;2023-11-19T03:51:11;11.90;99.90
52979;DHT22;63430;53.186;6.598;2023-11-19T03:53:17;11.90;99.90
52979;DHT22;63430;53.186;6.598;2023-11-19T03:55:21;12.30;99.90
52979;DHT22;63430;53.186;6.598;2023-11-19T03:57:23;11.90;99.90
52979;DHT22;63430;53.186;6.598;2023-11-19T03:59:27;11.90;99.90
52979;DHT22;63430;53.186;6.598;2023-11-19T04:01:30;11.90;99.90
52979;DHT22;63430;53.186;6.598;2023-11-19T04:03:32;11.90;99.90
52979;DHT22;63430;53.186;6.598;2023-11-19T04:05:35;11.90;99.90
52979;DHT22;63430;53.186;6.598;2023-11-19T04:07:40;11.90;99.90
52979;DHT22;63430;53.186;6.598;2023-11-19T04:09:43;11.90;99.90
52979;DHT22;63430;53.186;6.598;2023-11-19T04:11:45;11.80;99.90
52979;DHT22;63430;53.186;6.598;2023-11-19T04:13:49;12.60;99.90
52979;DHT22;63430;53.186;6.598;2023-11-19T04:15:52;11.80;99.90
52979;DHT22;63430;53.186;6.598;2023-11-19T04:17:54;11.80;99.90
52979;DHT22;63430;53.186;6.598;2023-11-19T04:19:57;11.80;99.90
52979;DHT22;63430;53.186;6.598;2023-11-19T04:22:00;11.80;99.90
52979;DHT22;63430;53.186;6.598;2023-11-19T04:24:05;12.70;99.90
52979;DHT22;63430;53.186;6.598;2023-11-19T04:26:08;11.80;99.90
52979;DHT22;63430;53.186;6.598;2023-11-19T04:28:12;11.80;99.90
52979;DHT22;63430;53.186;6.598;2023-11-19T04:30:15;11.80;99.90
52979;DHT22;63430;53.186;6.598;2023-11-19T04:32:22;11.80;99.90
52979;DHT22;63430;53.186;6.598;2023-11-19T04:34:24;11.90;99.90
52979;DHT22;63430;53.186;6.598;2023-11-19T04:36:28;11.80;99.90
52979;DHT22;63430;53.186;6.598;2023-11-19T04:38:31;12.30;99.90
52979;DHT22;63430;53.186;6.598;2023-11-19T04:40:37;12.60;99.90
52979;DHT22;63430;53.186;6.598;2023-11-19T04:42:39;12.00;99.90
52979;DHT22;63430;53.186;6.598;2023-11-19T04:44:45;11.80;99.90
52979;DHT22;63430;53.186;6.598;2023-11-19T04:46:47;11.90;99.90
52979;DHT22;63430;53.186;6.598;2023-11-19T04:48:50;11.90;99.90
52979;DHT22;63430;53.186;6.598;2023-11-19T04:50:53;11.90;99.90
52979;DHT22;63430;53.186;6.598;2023-11-19T04:52:57;11.80;99.90
52979;DHT22;63430;53.186;6.598;2023-11-19T04:55:02;11.90;99.90
52979;DHT22;63430;53.186;6.598;2023-11-19T04:57:07;11.90;99.90
52979;DHT22;63430;53.186;6.598;2023-11-19T04:59:13;12.30;99.90
52979;DHT22;63430;53.186;6.598;2023-11-19T05:01:15;12.00;99.90
52979;DHT22;63430;53.186;6.598;2023-11-19T05:03:19;11.90;99.90
52979;DHT22;63430;53.186;6.598;2023-11-19T05:05:21;11.90;99.90
52979;DHT22;63430;53.186;6.598;2023-11-19T05:07:24;11.90;99.90
52979;DHT22;63430;53.186;6.598;2023-11-19T05:09:27;12.30;99.90
52979;DHT22;63430;53.186;6.598;2023-11-19T05:11:29;11.90;99.90
52979;DHT22;63430;53.186;6.598;2023-11-19T05:13:34;11.90;99.90
52979;DHT22;63430;53.186;6.598;2023-11-19T05:15:37;11.90;99.90
52979;DHT22;63430;53.186;6.598;2023-11-19T05:17:40;11.90;99.90
52979;DHT22;63430;53.186;6.598;2023-11-19T05:19:43;12.00;99.90
52979;DHT22;63430;53.186;6.598;2023-11-19T05:21:45;11.80;99.90
52979;DHT22;63430;53.186;6.598;2023-11-19T05:23:48;11.90;99.90
52979;DHT22;63430;53.186;6.598;2023-11-19T05:25:50;11.90;99.90
52979;DHT22;63430;53.186;6.598;2023-11-19T05:27:53;11.90;99.90
52979;DHT22;63430;53.186;6.598;2023-11-19T05:29:58;11.90;99.90
52979;DHT22;63430;53.186;6.598;2023-11-19T05:32:00;11.90;99.90
52979;DHT22;63430;53.186;6.598;2023-11-19T05:34:04;11.80;99.90
52979;DHT22;63430;53.186;6.598;2023-11-19T05:36:07;12.10;99.90
52979;DHT22;63430;53.186;6.598;2023-11-19T05:38:10;11.80;99.90
52979;DHT22;63430;53.186;6.598;2023-11-19T05:40:13;11.70;99.90
52979;DHT22;63430;53.186;6.598;2023-11-19T05:42:17;11.80;99.90
52979;DHT22;63430;53.186;6.598;2023-11-19T05:44:20;11.80;99.90
52979;DHT22;63430;53.186;6.598;2023-11-19T05:46:25;11.70;99.90
52979;DHT22;63430;53.186;6.598;2023-11-19T05:48:29;11.90;99.90
52979;DHT22;63430;53.186;6.598;2023-11-19T05:50:32;11.70;99.90
52979;DHT22;63430;53.186;6.598;2023-11-19T05:52:34;11.70;99.90
52979;DHT22;63430;53.186;6.598;2023-11-19T05:54:37;12.10;99.90
52979;DHT22;63430;53.186;6.598;2023-11-19T05:56:40;11.70;99.90
52979;DHT22;63430;53.186;6.598;2023-11-19T05:58:44;11.70;99.90
52979;DHT22;63430;53.186;6.598;2023-11-19T06:00:47;12.30;99.90
52979;DHT22;63430;53.186;6.598;2023-11-19T06:02:52;11.80;99.90
52979;DHT22;63430;53.186;6.598;2023-11-19T06:04:55;11.90;99.90
52979;DHT22;63430;53.186;6.598;2023-11-19T06:06:57;11.70;99.90
52979;DHT22;63430;53.186;6.598;2023-11-19T06:09:00;11.70;99.90
52979;DHT22;63430;53.186;6.598;2023-11-19T06:11:15;12.50;99.90
52979;DHT22;63430;53.186;6.598;2023-11-19T06:13:21;11.70;99.90
52979;DHT22;63430;53.186;6.598;2023-11-19T06:15:26;11.70;99.90
52979;DHT22;63430;53.186;6.598;2023-11-19T06:17:29;11.70;99.90
52979;DHT22;63430;53.186;6.598;2023-11-19T06:19:35;12.10;99.90
52979;DHT22;63430;53.186;6.598;2023-11-19T06:21:37;12.40;99.90
52979;DHT22;63430;53.186;6.598;2023-11-19T06:23:40;11.70;99.90
52979;DHT22;63430;53.186;6.598;2023-11-19T06:25:43;11.60;99.90
52979;DHT22;63430;53.186;6.598;2023-11-19T06:27:45;11.70;99.90
52979;DHT22;63430;53.186;6.598;2023-11-19T06:29:48;11.70;99.90
52979;DHT22;63430;53.186;6.598;2023-11-19T06:31:50;11.70;99.90
52979;DHT22;63430;53.186;6.598;2023-11-19T06:33:53;11.60;99.90
52979;DHT22;63430;53.186;6.598;2023-11-19T06:35:59;11.60;99.90
52979;DHT22;63430;53.186;6.598;2023-11-19T06:38:02;11.60;99.90
52979;DHT22;63430;53.186;6.598;2023-11-19T06:40:08;11.60;99.90
52979;DHT22;63430;53.186;6.598;2023-11-19T06:42:14;11.60;99.90
52979;DHT22;63430;53.186;6.598;2023-11-19T06:44:17;11.90;99.90
52979;DHT22;63430;53.186;6.598;2023-11-19T06:46:20;11.50;99.90
52979;DHT22;63430;53.186;6.598;2023-11-19T06:48:23;11.60;99.90
52979;DHT22;63430;53.186;6.598;2023-11-19T06:50:25;11.60;99.90
52979;DHT22;63430;53.186;6.598;2023-11-19T06:52:30;11.50;99.90
52979;DHT22;63430;53.186;6.598;2023-11-19T06:54:33;11.60;99.90
52979;DHT22;63430;53.186;6.598;2023-11-19T06:56:35;12.10;99.90
52979;DHT22;63430;53.186;6.598;2023-11-19T06:58:41;11.50;99.90
52979;DHT22;63430;53.186;6.598;2023-11-19T07:00:45;11.60;99.90
52979;DHT22;63430;53.186;6.598;2023-11-19T07:02:49;11.50;99.90
52979;DHT22;63430;53.186;6.598;2023-11-19T07:04:53;12.50;99.90
52979;DHT22;63430;53.186;6.598;2023-11-19T07:06:56;11.50;99.90
52979;DHT22;63430;53.186;6.598;2023-11-19T07:09:09;11.50;99.90
52979;DHT22;63430;53.186;6.598;2023-11-19T07:11:12;11.40;99.90
52979;DHT22;63430;53.186;6.598;2023-11-19T07:13:16;11.40;99.90
52979;DHT22;63430;53.186;6.598;2023-11-19T07:15:19;11.50;99.90
52979;DHT22;63430;53.186;6.598;2023-11-19T07:17:21;11.40;99.90
52979;DHT22;63430;53.186;6.598;2023-11-19T07:19:24;11.40;99.90
52979;DHT22;63430;53.186;6.598;2023-11-19T07:21:26;11.40;99.90
52979;DHT22;63430;53.186;6.598;2023-11-19T07:23:30;11.40;99.90
52979;DHT22;63430;53.186;6.598;2023-11-19T07:25:36;11.30;99.90
52979;DHT22;63430;53.186;6.598;2023-11-19T07:27:39;11.30;99.90
52979;DHT22;63430;53.186;6.598;2023-11-19T07:29:43;11.40;99.90
52979;DHT22;63430;53.186;6.598;2023-11-19T07:31:48;11.30;99.90
52979;DHT22;63430;53.186;6.598;2023-11-19T07:33:51;11.30;99.90
52979;DHT22;63430;53.186;6.598;2023-11-19T07:35:53;11.40;99.90
52979;DHT22;63430;53.186;6.598;2023-11-19T07:37:57;11.30;99.90
52979;DHT22;63430;53.186;6.598;2023-11-19T07:39:59;11.30;99.90
52979;DHT22;63430;53.186;6.598;2023-11-19T07:42:05;11.30;99.90
52979;DHT22;63430;53.186;6.598;2023-11-19T07:44:08;11.30;99.90
52979;DHT22;63430;53.186;6.598;2023-11-19T07:46:11;11.30;99.90
52979;DHT22;63430;53.186;6.598;2023-11-19T07:48:15;11.30;99.90
52979;DHT22;63430;53.186;6.598;2023-11-19T07:50:18;11.20;99.90
52979;DHT22;63430;53.186;6.598;2023-11-19T07:52:22;11.30;99.90
52979;DHT22;63430;53.186;6.598;2023-11-19T07:54:25;11.30;99.90
52979;DHT22;63430;53.186;6.598;2023-11-19T07:56:27;11.30;99.90
52979;DHT22;63430;53.186;6.598;2023-11-19T07:58:33;11.90;99.90
52979;DHT22;63430;53.186;6.598;2023-11-19T08:00:35;11.40;99.90
52979;DHT22;63430;53.186;6.598;2023-11-19T08:02:38;11.40;99.90
52979;DHT22;63430;53.186;6.598;2023-11-19T08:04:41;11.40;99.90
52979;DHT22;63430;53.186;6.598;2023-11-19T08:06:47;11.50;99.90
52979;DHT22;63430;53.186;6.598;2023-11-19T08:08:50;11.30;99.90
52979;DHT22;63430;53.186;6.598;2023-11-19T08:10:54;11.50;99.90
52979;DHT22;63430;53.186;6.598;2023-11-19T08:12:58;11.80;99.90
52979;DHT22;63430;53.186;6.598;2023-11-19T08:15:04;11.50;99.90
52979;DHT22;63430;53.186;6.598;2023-11-19T08:17:07;11.50;99.90
52979;DHT22;63430;53.186;6.598;2023-11-19T08:19:10;12.20;99.90
52979;DHT22;63430;53.186;6.598;2023-11-19T08:21:12;11.50;99.90
52979;DHT22;63430;53.186;6.598;2023-11-19T08:23:15;12.30;99.90
52979;DHT22;63430;53.186;6.598;2023-11-19T08:25:18;11.50;99.90
52979;DHT22;63430;53.186;6.598;2023-11-19T08:27:20;11.50;99.90
52979;DHT22;63430;53.186;6.598;2023-11-19T08:29:31;11.60;99.90
52979;DHT22;63430;53.186;6.598;2023-11-19T08:31:36;11.50;99.90
52979;DHT22;63430;53.186;6.598;2023-11-19T08:33:39;11.60;99.90
52979;DHT22;63430;53.186;6.598;2023-11-19T08:35:41;11.60;99.90
52979;DHT22;63430;53.186;6.598;2023-11-19T08:37:44;11.60;99.90
52979;DHT22;63430;53.186;6.598;2023-11-19T08:39:49;12.10;99.90
52979;DHT22;63430;53.186;6.598;2023-11-19T08:41:52;11.70;99.90
52979;DHT22;63430;53.186;6.598;2023-11-19T08:43:57;12.00;99.90
52979;DHT22;63430;53.186;6.598;2023-11-19T08:46:00;11.70;99.90
52979;DHT22;63430;53.186;6.598;2023-11-19T08:48:05;11.60;99.90
52979;DHT22;63430;53.186;6.598;2023-11-19T08:50:08;11.60;99.90
52979;DHT22;63430;53.186;6.598;2023-11-19T08:52:11;11.50;99.90
52979;DHT22;63430;53.186;6.598;2023-11-19T08:54:14;11.50;99.90
52979;DHT22;63430;53.186;6.598;2023-11-19T08:56:16;11.50;99.90
52979;DHT22;63430;53.186;6.598;2023-11-19T08:58:19;11.50;99.90
52979;DHT22;63430;53.186;6.598;2023-11-19T09:00:22;11.40;99.90
52979;DHT22;63430;53.186;6.598;2023-11-19T09:02:25;11.50;99.90
52979;DHT22;63430;53.186;6.598;2023-11-19T09:04:30;11.50;99.90
52979;DHT22;63430;53.186;6.598;2023-11-19T09:06:33;11.50;99.90
52979;DHT22;63430;53.186;6.598;2023-11-19T09:08:35;11.50;99.90
52979;DHT22;63430;53.186;6.598;2023-11-19T09:10:38;11.60;99.90
52979;DHT22;63430;53.186;6.598;2023-11-19T09:12:40;12.20;99.90
52979;DHT22;63430;53.186;6.598;2023-11-19T09:14:43;11.80;99.90
52979;DHT22;63430;53.186;6.598;2023-11-19T09:16:45;11.90;99.90
52979;DHT22;63430;53.186;6.598;2023-11-19T09:18:48;12.00;99.90
52979;DHT22;63430;53.186;6.598;2023-11-19T09:20:53;12.00;99.90
52979;DHT22;63430;53.186;6.598;2023-11-19T09:22:56;12.00;99.90
52979;DHT22;63430;53.186;6.598;2023-11-19T09:24:59;12.00;99.90
52979;DHT22;63430;53.186;6.598;2023-11-19T09:27:03;12.20;99.90
52979;DHT22;63430;53.186;6.598;2023-11-19T09:29:05;12.00;99.90
52979;DHT22;63430;53.186;6.598;2023-11-19T09:31:16;12.20;99.90
52979;DHT22;63430;53.186;6.598;2023-11-19T09:33:19;12.10;99.90
52979;DHT22;63430;53.186;6.598;2023-11-19T09:35:22;11.80;99.90
52979;DHT22;63430;53.186;6.598;2023-11-19T09:37:27;11.80;99.90
52979;DHT22;63430;53.186;6.598;2023-11-19T09:39:30;12.60;99.90
52979;DHT22;63430;53.186;6.598;2023-11-19T09:41:33;11.80;99.90
52979;DHT22;63430;53.186;6.598;2023-11-19T09:43:37;11.70;99.90
52979;DHT22;63430;53.186;6.598;2023-11-19T09:45:48;11.80;99.90
52979;DHT22;63430;53.186;6.598;2023-11-19T09:47:51;11.80;99.90
52979;DHT22;63430;53.186;6.598;2023-11-19T09:49:55;11.90;99.90
52979;DHT22;63430;53.186;6.598;2023-11-19T09:52:00;12.00;99.90
52979;DHT22;63430;53.186;6.598;2023-11-19T09:54:05;12.10;99.90
52979;DHT22;63430;53.186;6.598;2023-11-19T09:56:10;12.10;99.90
52979;DHT22;63430;53.186;6.598;2023-11-19T09:58:17;12.90;99.90
52979;DHT22;63430;53.186;6.598;2023-11-19T10:00:21;12.20;99.90
52979;DHT22;63430;53.186;6.598;2023-11-19T10:02:24;12.20;99.90
52979;DHT22;63430;53.186;6.598;2023-11-19T10:04:30;12.20;99.90
52979;DHT22;63430;53.186;6.598;2023-11-19T10:06:35;12.50;99.90
52979;DHT22;63430;53.186;6.598;2023-11-19T10:08:38;12.20;99.90
52979;DHT22;63430;53.186;6.598;2023-11-19T10:10:47;12.30;99.90
52979;DHT22;63430;53.186;6.598;2023-11-19T10:12:51;12.20;99.90
52979;DHT22;63430;53.186;6.598;2023-11-19T10:14:57;12.20;99.90
52979;DHT22;63430;53.186;6.598;2023-11-19T10:17:01;12.30;99.90
52979;DHT22;63430;53.186;6.598;2023-11-19T10:19:06;12.30;99.90
52979;DHT22;63430;53.186;6.598;2023-11-19T10:21:12;12.30;99.90
52979;DHT22;63430;53.186;6.598;2023-11-19T10:23:19;12.40;99.90
52979;DHT22;63430;53.186;6.598;2023-11-19T10:25:23;12.20;99.90
52979;DHT22;63430;53.186;6.598;2023-11-19T10:27:31;12.20;99.90
52979;DHT22;63430;53.186;6.598;2023-11-19T10:29:36;12.20;99.90
52979;DHT22;63430;53.186;6.598;2023-11-19T10:31:40;12.20;99.90
52979;DHT22;63430;53.186;6.598;2023-11-19T10:33:42;12.20;99.90
52979;DHT22;63430;53.186;6.598;2023-11-19T10:35:52;12.60;99.90
52979;DHT22;63430;53.186;6.598;2023-11-19T10:38:14;12.20;99.90
52979;DHT22;63430;53.186;6.598;2023-11-19T10:40:17;12.30;99.90
52979;DHT22;63430;53.186;6.598;2023-11-19T10:42:21;12.10;99.90
52979;DHT22;63430;53.186;6.598;2023-11-19T10:44:35;12.50;99.90
52979;DHT22;63430;53.186;6.598;2023-11-19T10:46:43;12.10;99.90
52979;DHT22;63430;53.186;6.598;2023-11-19T10:48:48;12.10;99.90
52979;DHT22;63430;53.186;6.598;2023-11-19T10:50:53;12.10;99.90
52979;DHT22;63430;53.186;6.598;2023-11-19T10:52:57;12.10;99.90
52979;DHT22;63430;53.186;6.598;2023-11-19T10:55:06;12.10;99.90
52979;DHT22;63430;53.186;6.598;2023-11-19T10:57:12;12.10;99.90
52979;DHT22;63430;53.186;6.598;2023-11-19T10:59:18;12.20;99.90
52979;DHT22;63430;53.186;6.598;2023-11-19T11:01:32;12.20;99.90
52979;DHT22;63430;53.186;6.598;2023-11-19T11:03:39;12.10;99.90
52979;DHT22;63430;53.186;6.598;2023-11-19T11:05:43;12.60;99.90
52979;DHT22;63430;53.186;6.598;2023-11-19T11:07:47;12.10;99.90
52979;DHT22;63430;53.186;6.598;2023-11-19T11:09:51;12.40;99.90
52979;DHT22;63430;53.186;6.598;2023-11-19T11:11:55;12.20;99.90
52979;DHT22;63430;53.186;6.598;2023-11-19T11:13:59;12.30;99.90
52979;DHT22;63430;53.186;6.598;2023-11-19T11:16:04;12.20;99.90
52979;DHT22;63430;53.186;6.598;2023-11-19T11:18:12;12.30;99.90
52979;DHT22;63430;53.186;6.598;2023-11-19T11:20:15;12.30;99.90
52979;DHT22;63430;53.186;6.598;2023-11-19T11:22:18;12.30;99.90
52979;DHT22;63430;53.186;6.598;2023-11-19T11:24:37;13.10;99.90
52979;DHT22;63430;53.186;6.598;2023-11-19T11:26:58;12.40;99.90
52979;DHT22;63430;53.186;6.598;2023-11-19T11:29:09;12.50;99.90
52979;DHT22;63430;53.186;6.598;2023-11-19T11:31:23;13.20;99.90
52979;DHT22;63430;53.186;6.598;2023-11-19T11:33:43;12.40;99.90
52979;DHT22;63430;53.186;6.598;2023-11-19T11:36:13;12.40;99.90
52979;DHT22;63430;53.186;6.598;2023-11-19T11:38:21;12.40;99.90
52979;DHT22;63430;53.186;6.598;2023-11-19T11:40:25;12.30;99.90
52979;DHT22;63430;53.186;6.598;2023-11-19T11:42:33;12.40;99.90
52979;DHT22;63430;53.186;6.598;2023-11-19T11:45:00;12.40;99.90
52979;DHT22;63430;53.186;6.598;2023-11-19T11:47:06;12.40;99.90
52979;DHT22;63430;53.186;6.598;2023-11-19T11:49:11;12.50;99.90
52979;DHT22;63430;53.186;6.598;2023-11-19T11:51:15;12.50;99.90
52979;DHT22;63430;53.186;6.598;2023-11-19T11:53:19;12.50;99.90
52979;DHT22;63430;53.186;6.598;2023-11-19T11:55:24;12.70;99.90
52979;DHT22;63430;53.186;6.598;2023-11-19T11:57:26;12.60;99.90
52979;DHT22;63430;53.186;6.598;2023-11-19T11:59:48;12.60;99.90
52979;DHT22;63430;53.186;6.598;2023-11-19T12:01:58;12.80;99.90
52979;DHT22;63430;53.186;6.598;2023-11-19T12:04:01;12.50;99.90
52979;DHT22;63430;53.186;6.598;2023-11-19T12:06:08;12.50;99.90
52979;DHT22;63430;53.186;6.598;2023-11-19T12:08:12;12.50;99.90
52979;DHT22;63430;53.186;6.598;2023-11-19T12:10:16;12.50;99.90
52979;DHT22;63430;53.186;6.598;2023-11-19T12:12:27;12.50;99.90
52979;DHT22;63430;53.186;6.598;2023-11-19T12:15:03;12.40;99.90
52979;DHT22;63430;53.186;6.598;2023-11-19T12:17:37;12.30;99.90
52979;DHT22;63430;53.186;6.598;2023-11-19T12:19:42;12.40;99.90
52979;DHT22;63430;53.186;6.598;2023-11-19T12:21:47;12.50;99.90
52979;DHT22;63430;53.186;6.598;2023-11-19T12:23:50;12.50;99.90
52979;DHT22;63430;53.186;6.598;2023-11-19T12:25:53;12.90;99.90
52979;DHT22;63430;53.186;6.598;2023-11-19T12:27:56;12.60;99.90
52979;DHT22;63430;53.186;6.598;2023-11-19T12:29:58;12.70;99.90
52979;DHT22;63430;53.186;6.598;2023-11-19T12:32:01;12.70;99.90
52979;DHT22;63430;53.186;6.598;2023-11-19T12:34:08;12.90;99.90
52979;DHT22;63430;53.186;6.598;2023-11-19T12:36:15;12.80;99.90
52979;DHT22;63430;53.186;6.598;2023-11-19T12:38:24;12.90;99.90
52979;DHT22;63430;53.186;6.598;2023-11-19T12:40:27;12.90;99.90
52979;DHT22;63430;53.186;6.598;2023-11-19T12:42:37;13.10;99.90
52979;DHT22;63430;53.186;6.598;2023-11-19T12:44:54;13.00;99.90
52979;DHT22;63430;53.186;6.598;2023-11-19T12:47:02;13.00;99.90
52979;DHT22;63430;53.186;6.598;2023-11-19T12:49:05;13.10;99.90
52979;DHT22;63430;53.186;6.598;2023-11-19T12:51:08;13.60;99.90
52979;DHT22;63430;53.186;6.598;2023-11-19T12:53:15;13.00;99.90
52979;DHT22;63430;53.186;6.598;2023-11-19T12:55:28;13.00;99.90
52979;DHT22;63430;53.186;6.598;2023-11-19T12:57:39;12.90;99.90
52979;DHT22;63430;53.186;6.598;2023-11-19T12:59:42;12.90;99.90
52979;DHT22;63430;53.186;6.598;2023-11-19T13:01:54;12.90;99.90
52979;DHT22;63430;53.186;6.598;2023-11-19T13:03:57;12.90;99.90
52979;DHT22;63430;53.186;6.598;2023-11-19T13:06:03;13.40;99.90
52979;DHT22;63430;53.186;6.598;2023-11-19T13:08:09;12.80;99.90